Time;durP1;ratioP1;P1;durP2;ratioP2;P2;SDS_P1;SDS_P2;PMS_P1;PMS_P2;Temp;Humidity;BMP_temperature;BMP_pressure;BME280_temperature;BME280_humidity;BME280_pressure;Samples;Min_cycle;Max_cycle;Signal;HPM_P1;HPM_P2
2022/01/21 00:01:27;;;;;;;5.32;2.97;;;;;;;-0.92;100.00;97905.41;5035389;28;20110;-66
2022/01/21 00:03:53;;;;;;;5.82;3.03;;;;;;;-1.01;100.00;97897.88;5044023;28;20505;-66
2022/01/21 00:06:19;;;;;;;11.68;3.47;;;;;;;-0.97;100.00;97893.56;5038673;28;20517;-65
2022/01/21 00:08:46;;;;;;;6.97;3.40;;;;;;;-0.88;100.00;97890.34;5042197;28;20045;-66
2022/01/21 00:11:14;;;;;;;8.50;3.30;;;;;;;-0.88;100.00;97887.66;5053495;28;20048;-65
2022/01/21 00:13:40;;;;;;;6.72;3.53;;;;;;;-0.83;100.00;97899.28;5044031;28;20056;-65
2022/01/21 00:16:25;;;;;;;9.18;3.25;;;;;;;-0.76;100.00;97893.63;5036720;28;20056;-66
2022/01/21 00:19:01;;;;;;;14.10;3.70;;;;;;;-0.83;100.00;97883.13;5039509;28;20131;-65
2022/01/21 00:32:24;;;;;;;9.43;4.10;;;;;;;-1.45;100.00;97878.53;5029149;28;20528;-65
2022/01/21 00:34:50;;;;;;;11.60;3.92;;;;;;;-1.46;100.00;97885.78;5036191;28;20048;-65
2022/01/21 00:37:15;;;;;;;7.57;4.43;;;;;;;-1.46;100.00;97884.97;5035003;28;20059;-65
2022/01/21 00:39:41;;;;;;;8.95;4.35;;;;;;;-1.31;100.00;97879.69;5042217;28;20087;-65
2022/01/21 00:44:32;;;;;;;12.23;3.65;;;;;;;-1.12;100.00;97876.56;5039503;28;20490;-65
2022/01/21 00:46:58;;;;;;;7.30;3.63;;;;;;;-1.04;100.00;97881.44;5034208;28;20049;-63
2022/01/21 00:49:23;;;;;;;7.97;3.75;;;;;;;-0.93;100.00;97882.28;5037692;28;20901;-65
2022/01/21 00:51:49;;;;;;;7.05;3.90;;;;;;;-0.96;100.00;97889.00;5042561;28;20382;-65
2022/01/21 00:54:14;;;;;;;8.50;3.28;;;;;;;-1.17;100.00;97888.06;5037587;28;20040;-65
2022/01/21 00:56:40;;;;;;;8.68;3.80;;;;;;;-1.48;100.00;97887.09;5042046;28;20477;-65
2022/01/21 00:59:06;;;;;;;8.90;3.90;;;;;;;-1.63;100.00;97877.88;5022848;28;20103;-66
2022/01/21 01:01:31;;;;;;;9.30;3.90;;;;;;;-1.85;100.00;97882.56;5058264;28;20048;-65
2022/01/21 01:03:57;;;;;;;10.23;4.20;;;;;;;-1.86;100.00;97883.63;5026833;28;20048;-65
2022/01/21 01:06:22;;;;;;;8.48;3.90;;;;;;;-1.78;100.00;97891.22;5017081;28;20049;-65
2022/01/21 01:08:50;;;;;;;13.75;4.68;;;;;;;-1.60;100.00;97892.69;5036043;28;20045;-65
2022/01/21 01:11:29;;;;;;;11.00;5.28;;;;;;;-1.42;100.00;97891.47;5028168;28;20123;-65
2022/01/21 01:22:07;;;;;;;10.85;5.22;;;;;;;-1.11;100.00;97892.44;5037291;28;20037;-66
2022/01/21 01:29:57;;;;;;;14.55;6.72;;;;;;;-1.00;100.00;97899.47;5022301;28;20099;-65
2022/01/21 01:32:24;;;;;;;12.48;4.75;;;;;;;-0.99;100.00;97893.03;5021445;28;20082;-65
2022/01/21 01:34:50;;;;;;;8.30;3.60;;;;;;;-1.02;100.00;97882.78;5027285;28;20037;-66
2022/01/21 01:37:32;;;;;;;5.90;3.28;;;;;;;-0.99;100.00;97887.66;5021049;28;20097;-66
2022/01/21 01:40:22;;;;;;;7.40;3.13;;;;;;;-0.95;100.00;97896.00;5029617;28;20088;-66
2022/01/21 01:51:01;;;;;;;7.35;2.97;;;;;;;-0.91;100.00;97899.78;5036554;28;20101;-66
2022/01/21 01:53:42;;;;;;;9.35;3.15;;;;;;;-0.89;100.00;97900.31;5035946;28;20048;-65
2022/01/21 01:56:11;;;;;;;9.32;3.13;;;;;;;-0.90;100.00;97889.81;5049928;28;20033;-65
2022/01/21 01:58:38;;;;;;;7.32;3.47;;;;;;;-0.99;100.00;97895.72;5028579;28;20049;-65
2022/01/21 02:01:05;;;;;;;9.88;3.67;;;;;;;-1.14;100.00;97892.94;5017561;28;20513;-64
2022/01/21 02:03:31;;;;;;;6.65;3.00;;;;;;;-1.25;100.00;97892.06;5020939;28;20129;-65
2022/01/21 02:05:56;;;;;;;7.70;3.55;;;;;;;-1.13;100.00;97888.38;5021105;28;20052;-65
2022/01/21 02:08:22;;;;;;;7.97;3.33;;;;;;;-0.93;100.00;97883.09;5015166;28;20427;-66
2022/01/21 02:10:47;;;;;;;7.85;3.13;;;;;;;-1.00;100.00;97893.28;5019728;28;20392;-66
2022/01/21 02:15:59;;;;;;;8.18;3.38;;;;;;;-0.99;100.00;97901.09;5020525;28;20141;-65
2022/01/21 02:23:54;;;;;;;6.95;2.80;;;;;;;-1.13;100.00;97894.56;5032910;28;20108;-64
2022/01/21 02:26:20;;;;;;;11.00;3.55;;;;;;;-0.99;100.00;97887.66;5038378;28;20060;-64
2022/01/21 02:28:46;;;;;;;9.02;3.08;;;;;;;-1.10;100.00;97879.78;5041552;28;20033;-64
2022/01/21 02:31:11;;;;;;;8.15;3.13;;;;;;;-0.96;100.00;97886.31;5035104;28;20409;-65
2022/01/21 02:33:36;;;;;;;5.85;2.88;;;;;;;-0.97;100.00;97884.69;5032212;28;20040;-65
2022/01/21 02:36:02;;;;;;;7.43;3.33;;;;;;;-0.93;100.00;97880.41;5023019;28;20053;-66
2022/01/21 02:38:28;;;;;;;8.00;2.90;;;;;;;-0.89;100.00;97875.31;5028337;28;20045;-65
2022/01/21 02:40:53;;;;;;;10.90;3.13;;;;;;;-0.96;100.00;97879.03;5055145;28;20417;-65
2022/01/21 02:43:21;;;;;;;10.45;3.13;;;;;;;-1.06;100.00;97886.25;5048935;28;20055;-66
2022/01/21 02:45:47;;;;;;;9.23;3.20;;;;;;;-0.97;100.00;97884.69;5064942;28;20072;-66
2022/01/21 02:48:13;;;;;;;6.05;3.10;;;;;;;-1.00;100.00;97887.91;5035824;28;20048;-65
2022/01/21 02:50:39;;;;;;;10.50;3.75;;;;;;;-0.89;100.00;97891.44;5039331;28;20045;-66
2022/01/21 02:54:04;;;;;;;10.85;3.47;;;;;;;-0.83;100.00;97890.38;5025121;28;20056;-65
2022/01/21 02:55:53;;;;;;;8.18;3.00;;;;;;;-0.70;100.00;97884.53;5035060;28;20045;-66
2022/01/21 02:58:19;;;;;;;10.02;3.00;;;;;;;-0.75;100.00;97883.72;5017020;28;20104;-66
2022/01/21 03:00:45;;;;;;;7.82;2.92;;;;;;;-0.69;100.00;97883.44;5020859;28;20049;-65
2022/01/21 03:03:10;;;;;;;6.82;3.28;;;;;;;-0.79;100.00;97881.53;5015789;28;20048;-65
2022/01/21 03:05:38;;;;;;;6.90;2.80;;;;;;;-0.84;100.00;97894.97;5034929;28;20071;-66
2022/01/21 03:08:05;;;;;;;10.63;3.10;;;;;;;-0.80;100.00;97890.66;5033901;28;20367;-65
2022/01/21 03:10:31;;;;;;;8.38;2.70;;;;;;;-0.78;100.00;97880.44;5020532;28;20492;-63
2022/01/21 03:12:56;;;;;;;6.70;2.67;;;;;;;-0.73;100.00;97884.25;5024580;28;20124;-65
2022/01/21 03:15:21;;;;;;;11.52;3.45;;;;;;;-0.66;100.00;97882.13;5032061;28;20790;-66
2022/01/21 03:17:47;;;;;;;9.27;2.80;;;;;;;-0.71;100.00;97888.28;5024259;28;20052;-65
2022/01/21 03:20:12;;;;;;;9.60;2.67;;;;;;;-0.70;100.00;97891.78;5026157;28;20060;-65
2022/01/21 03:22:39;;;;;;;7.93;2.80;;;;;;;-0.64;99.86;97893.41;5026793;28;20037;-63
2022/01/21 03:25:06;;;;;;;6.03;2.95;;;;;;;-0.66;99.92;97892.88;5031856;28;20662;-65
2022/01/21 03:27:31;;;;;;;9.95;2.88;;;;;;;-0.75;100.00;97891.78;5031724;28;20041;-65
2022/01/21 03:29:58;;;;;;;10.43;3.00;;;;;;;-0.78;100.00;97899.28;5031856;28;20448;-66
2022/01/21 03:32:25;;;;;;;7.63;2.67;;;;;;;-0.81;100.00;97897.13;5034934;28;21032;-65
2022/01/21 03:34:51;;;;;;;11.13;3.38;;;;;;;-0.79;100.00;97894.19;5030803;28;20139;-64
2022/01/21 03:37:16;;;;;;;7.95;2.90;;;;;;;-0.74;100.00;97896.88;5018996;28;20359;-66
2022/01/21 03:39:42;;;;;;;9.13;2.85;;;;;;;-0.73;100.00;97900.38;5031463;28;20118;-66
2022/01/21 03:42:07;;;;;;;9.20;2.83;;;;;;;-0.73;100.00;97905.78;5027047;28;20448;-66
2022/01/21 03:44:32;;;;;;;7.20;3.40;;;;;;;-0.76;100.00;97917.84;5027264;28;20041;-66
2022/01/21 03:46:58;;;;;;;10.77;2.83;;;;;;;-0.70;100.00;97927.56;5047782;28;20041;-66
2022/01/21 03:49:23;;;;;;;8.40;2.78;;;;;;;-0.61;100.00;97919.81;5030921;28;20040;-65
2022/01/21 03:51:49;;;;;;;6.55;2.88;;;;;;;-0.66;100.00;97919.78;5026707;28;20041;-66
2022/01/21 03:54:14;;;;;;;9.38;3.50;;;;;;;-0.83;100.00;97910.03;5028986;28;20107;-65
2022/01/21 03:56:40;;;;;;;8.00;3.03;;;;;;;-1.01;100.00;97905.94;5036744;28;20048;-66
2022/01/21 03:59:07;;;;;;;9.15;3.08;;;;;;;-1.12;100.00;97900.75;5033584;28;20045;-67
2022/01/21 04:01:33;;;;;;;6.97;3.20;;;;;;;-1.30;100.00;97900.09;5033895;28;20041;-66
2022/01/21 04:03:58;;;;;;;8.45;3.22;;;;;;;-1.39;100.00;97901.66;5037269;28;20976;-65
2022/01/21 04:06:24;;;;;;;10.18;3.60;;;;;;;-1.49;100.00;97898.94;5024790;28;20825;-66
2022/01/21 04:08:50;;;;;;;11.77;3.70;;;;;;;-1.63;100.00;97887.81;5031548;28;20076;-67
2022/01/21 04:11:15;;;;;;;6.10;3.15;;;;;;;-1.77;100.00;97885.56;5031210;28;20183;-65
2022/01/21 04:13:42;;;;;;;7.60;3.60;;;;;;;-1.86;100.00;97884.41;5035619;28;20387;-66
2022/01/21 04:16:08;;;;;;;12.65;4.05;;;;;;;-1.93;100.00;97887.34;5027181;28;20064;-66
2022/01/21 04:18:33;;;;;;;8.25;3.58;;;;;;;-2.02;100.00;97886.16;5028939;28;20030;-66
2022/01/21 04:20:59;;;;;;;13.30;4.20;;;;;;;-2.00;100.00;97896.66;5023155;28;20430;-65
2022/01/21 04:23:25;;;;;;;8.32;3.50;;;;;;;-1.89;100.00;97905.59;5021425;28;20044;-66
2022/01/21 04:25:51;;;;;;;12.07;4.40;;;;;;;-2.06;100.00;97901.19;5038512;28;20141;-66
2022/01/21 04:28:17;;;;;;;10.65;3.85;;;;;;;-2.24;100.00;97902.34;5033928;28;20072;-66
2022/01/21 04:30:43;;;;;;;8.13;3.72;;;;;;;-2.26;100.00;97899.13;5037688;28;20437;-66
2022/01/21 04:33:08;;;;;;;5.57;3.50;;;;;;;-2.28;100.00;97897.78;5036806;28;20390;-66
2022/01/21 04:35:35;;;;;;;10.95;3.92;;;;;;;-2.28;100.00;97901.25;5031930;28;20103;-66
2022/01/21 04:38:04;;;;;;;13.07;3.80;;;;;;;-2.24;100.00;97902.34;5025680;28;20243;-65
2022/01/21 04:40:34;;;;;;;20.77;4.20;;;;;;;-2.21;100.00;97903.75;5034649;28;20045;-65
2022/01/21 04:48:30;;;;;;;10.65;4.25;;;;;;;-2.07;100.00;97910.31;5023005;28;20037;-65
2022/01/21 04:50:59;;;;;;;7.82;4.10;;;;;;;-2.08;100.00;97919.41;5029552;28;20047;-65
2022/01/21 04:53:27;;;;;;;9.60;4.97;;;;;;;-2.07;100.00;97923.75;5024965;28;20398;-65
2022/01/21 04:55:53;;;;;;;19.55;5.25;;;;;;;-2.00;100.00;97918.97;5034007;28;20107;-65
2022/01/21 04:58:19;;;;;;;12.07;4.70;;;;;;;-2.05;100.00;97915.41;5036313;28;20037;-66
2022/01/21 05:00:45;;;;;;;6.90;3.85;;;;;;;-2.09;100.00;97922.34;5042894;28;20116;-65
2022/01/21 05:03:11;;;;;;;11.30;4.50;;;;;;;-1.98;100.00;97916.84;5034683;28;20045;-65
2022/01/21 05:05:38;;;;;;;11.00;4.43;;;;;;;-2.03;100.00;97918.66;5028199;28;20038;-65
2022/01/21 05:08:07;;;;;;;12.57;4.30;;;;;;;-2.30;100.00;97919.50;5019752;28;20087;-66
2022/01/21 05:10:34;;;;;;;12.00;4.50;;;;;;;-2.57;100.00;97939.06;5020724;28;20057;-65
2022/01/21 05:12:59;;;;;;;21.63;5.53;;;;;;;-2.85;100.00;97940.06;5031645;28;20048;-65
2022/01/21 05:15:40;;;;;;;14.75;5.43;;;;;;;-2.78;100.00;97939.88;5036852;28;20059;-64
2022/01/21 05:18:06;;;;;;;13.23;5.13;;;;;;;-2.69;100.00;97943.72;5034548;28;20110;-65
2022/01/21 05:20:31;;;;;;;11.32;5.18;;;;;;;-2.62;100.00;97949.72;5023741;28;20041;-66
2022/01/21 05:22:56;;;;;;;12.18;5.30;;;;;;;-2.45;100.00;97938.91;5044006;28;20505;-66
2022/01/21 05:25:22;;;;;;;9.43;5.05;;;;;;;-2.41;100.00;97948.09;5029555;28;20044;-66
2022/01/21 05:27:51;;;;;;;10.75;5.63;;;;;;;-2.27;100.00;97951.16;5042397;28;20769;-66
2022/01/21 05:30:17;;;;;;;13.53;4.87;;;;;;;-2.10;100.00;97943.03;5062534;28;20041;-66
2022/01/21 05:32:43;;;;;;;13.90;4.30;;;;;;;-1.99;100.00;97944.75;5047134;28;20041;-63
2022/01/21 05:35:09;;;;;;;11.18;4.95;;;;;;;-2.03;100.00;97942.84;5037071;28;20186;-67
2022/01/21 05:37:35;;;;;;;14.23;4.95;;;;;;;-2.14;100.00;97936.56;5035956;28;20049;-68
2022/01/21 05:40:04;;;;;;;18.70;5.35;;;;;;;-2.20;100.00;97946.41;5051054;28;20044;-67
2022/01/21 05:42:30;;;;;;;8.98;3.97;;;;;;;-2.19;100.00;97936.50;5051272;28;20044;-68
2022/01/21 05:47:21;;;;;;;10.80;4.60;;;;;;;-2.28;100.00;97949.56;5026808;28;20041;-66
2022/01/21 05:49:46;;;;;;;12.25;4.55;;;;;;;-2.16;100.00;97957.44;5020570;28;20474;-66
2022/01/21 05:52:19;;;;;;;17.55;4.47;;;;;;;-2.14;100.00;97952.66;5018139;28;20120;-66
2022/01/21 05:54:46;;;;;;;18.95;4.60;;;;;;;-2.16;100.00;97949.41;5022229;28;20065;-66
2022/01/21 05:57:13;;;;;;;15.35;4.13;;;;;;;-2.33;100.00;97955.66;5015938;28;20083;-66
2022/01/21 05:59:41;;;;;;;14.68;4.18;;;;;;;-2.40;100.00;97963.09;5028088;28;20069;-67
2022/01/21 06:02:08;;;;;;;15.07;5.03;;;;;;;-2.44;100.00;97971.94;5025027;28;20049;-67
2022/01/21 06:04:34;;;;;;;9.35;4.30;;;;;;;-2.45;100.00;97971.09;5043899;28;20482;-66
2022/01/21 06:07:00;;;;;;;8.95;4.03;;;;;;;-2.41;100.00;97966.03;5020920;28;20452;-67
2022/01/21 06:09:27;;;;;;;19.33;5.38;;;;;;;-2.28;100.00;97976.41;5017038;28;20060;-66
2022/01/21 06:11:53;;;;;;;27.63;5.03;;;;;;;-2.03;100.00;97981.22;5023125;28;20056;-67
2022/01/21 06:14:19;;;;;;;20.75;4.70;;;;;;;-2.05;100.00;97975.28;5023072;28;20037;-66
2022/01/21 06:16:45;;;;;;;18.63;4.68;;;;;;;-2.17;100.00;97974.63;5032626;28;20048;-66
2022/01/21 06:19:10;;;;;;;12.55;4.53;;;;;;;-2.05;100.00;97982.53;5051839;28;20106;-66
2022/01/21 06:21:36;;;;;;;13.27;4.50;;;;;;;-1.95;100.00;97983.44;5039949;28;20041;-66
2022/01/21 06:24:01;;;;;;;13.20;5.25;;;;;;;-1.88;100.00;97983.22;5034704;28;20140;-67
2022/01/21 06:26:27;;;;;;;15.43;6.55;;;;;;;-1.91;100.00;97991.78;5037582;28;20076;-66
2022/01/21 06:28:52;;;;;;;12.20;4.80;;;;;;;-1.86;100.00;97997.22;5032908;28;20041;-67
2022/01/21 06:31:18;;;;;;;13.80;4.53;;;;;;;-2.09;100.00;97997.53;5031498;28;20037;-65
2022/01/21 06:33:43;;;;;;;9.90;4.93;;;;;;;-2.33;100.00;98009.34;5039154;28;20068;-66
2022/01/21 06:36:08;;;;;;;8.70;4.45;;;;;;;-2.39;100.00;98010.34;5018057;28;20053;-66
2022/01/21 06:38:35;;;;;;;45.30;15.07;;;;;;;-2.34;100.00;97999.69;5020143;28;20405;-67
2022/01/21 06:41:01;;;;;;;115.18;31.23;;;;;;;-2.30;100.00;98002.69;5029955;28;20055;-66
2022/01/21 06:43:27;;;;;;;108.10;29.67;;;;;;;-2.24;100.00;98007.03;5037900;28;20045;-66
2022/01/21 06:45:53;;;;;;;56.72;17.73;;;;;;;-2.18;100.00;98002.53;5065799;28;20478;-66
2022/01/21 06:48:18;;;;;;;39.38;10.90;;;;;;;-2.08;100.00;98010.69;5031153;28;20541;-68
2022/01/21 06:50:44;;;;;;;19.50;6.80;;;;;;;-1.83;100.00;98012.03;5037865;28;20507;-66
2022/01/21 06:53:09;;;;;;;13.27;5.43;;;;;;;-1.79;100.00;98013.94;5039817;28;20045;-65
2022/01/21 06:55:36;;;;;;;10.65;5.65;;;;;;;-1.68;100.00;98011.34;5019539;28;20463;-67
2022/01/21 06:58:02;;;;;;;15.20;5.13;;;;;;;-1.52;100.00;98017.69;5030496;28;20041;-68
2022/01/21 07:00:27;;;;;;;15.05;5.63;;;;;;;-1.54;100.00;98021.41;5037158;28;20397;-67
2022/01/21 07:02:53;;;;;;;14.95;5.22;;;;;;;-1.62;100.00;98027.28;5039852;28;20041;-67
2022/01/21 07:05:22;;;;;;;12.80;5.10;;;;;;;-1.69;100.00;98039.25;5035657;28;20420;-67
2022/01/21 07:07:47;;;;;;;13.80;5.22;;;;;;;-1.62;100.00;98039.88;5039435;28;20056;-67
2022/01/21 07:10:14;;;;;;;12.38;4.85;;;;;;;-1.64;100.00;98034.78;5033332;28;20044;-67
2022/01/21 07:12:41;;;;;;;21.55;5.40;;;;;;;-1.71;100.00;98041.41;5038651;28;20103;-68
2022/01/21 07:15:09;;;;;;;11.13;4.95;;;;;;;-1.94;100.00;98041.47;5018094;28;20102;-67
2022/01/21 07:17:35;;;;;;;14.85;5.10;;;;;;;-2.15;100.00;98042.28;5020293;28;20033;-67
2022/01/21 07:20:01;;;;;;;13.20;5.45;;;;;;;-2.07;100.00;98043.72;5021323;28;20375;-66
2022/01/21 07:22:27;;;;;;;18.98;6.05;;;;;;;-1.99;100.00;98045.97;5015930;28;20042;-66
2022/01/21 07:24:52;;;;;;;15.77;6.07;;;;;;;-1.87;100.00;98048.50;5037311;28;20398;-64
2022/01/21 07:27:18;;;;;;;12.35;5.78;;;;;;;-1.97;100.00;98050.00;5031550;28;20045;-66
2022/01/21 07:29:43;;;;;;;16.08;5.28;;;;;;;-2.38;100.00;98051.41;5026548;28;20045;-66
2022/01/21 07:32:09;;;;;;;17.02;5.68;;;;;;;-2.56;100.00;98056.00;5015637;28;20371;-65
2022/01/21 07:34:35;;;;;;;13.82;5.35;;;;;;;-2.46;100.00;98070.63;5035717;28;20046;-67
2022/01/21 07:37:00;;;;;;;14.60;6.07;;;;;;;-2.41;100.00;98076.03;5020472;28;20514;-66
2022/01/21 07:39:26;;;;;;;25.20;7.10;;;;;;;-2.45;100.00;98072.25;5015503;28;20042;-67
2022/01/21 07:41:52;;;;;;;19.00;7.70;;;;;;;-2.23;100.00;98065.03;5033550;28;20175;-65
2022/01/21 07:44:18;;;;;;;20.08;7.47;;;;;;;-1.94;100.00;98079.06;5027761;28;20041;-65
2022/01/21 07:46:45;;;;;;;24.27;9.63;;;;;;;-1.89;100.00;98072.94;5034638;28;20143;-66
2022/01/21 07:49:11;;;;;;;29.35;10.38;;;;;;;-1.85;100.00;98071.38;5026348;28;20041;-66
2022/01/21 07:51:37;;;;;;;22.05;9.73;;;;;;;-1.45;100.00;98067.44;5021098;28;20044;-66
2022/01/21 07:54:03;;;;;;;25.05;8.32;;;;;;;-1.39;100.00;98069.13;5039737;28;20037;-66
2022/01/21 07:56:29;;;;;;;19.45;8.30;;;;;;;-1.23;100.00;98074.63;5022141;28;20049;-66
2022/01/21 07:58:55;;;;;;;19.92;7.43;;;;;;;-1.10;100.00;98059.94;5025096;28;20056;-66
2022/01/21 08:01:21;;;;;;;17.50;7.93;;;;;;;-0.98;100.00;98065.94;5019328;28;20402;-66
2022/01/21 08:03:46;;;;;;;24.48;9.80;;;;;;;-0.78;100.00;98067.97;5024256;28;20045;-65
2022/01/21 08:06:12;;;;;;;14.10;5.53;;;;;;;-0.69;100.00;98063.72;5019864;28;20041;-66
2022/01/21 08:08:37;;;;;;;17.15;6.28;;;;;;;-0.71;100.00;98065.84;5035028;28;20073;-67
2022/01/21 08:11:03;;;;;;;18.95;7.57;;;;;;;-0.68;100.00;98069.91;5032532;28;20041;-65
2022/01/21 08:13:29;;;;;;;16.08;5.57;;;;;;;-0.68;100.00;98072.63;5029387;28;20415;-67
2022/01/21 08:15:55;;;;;;;9.52;4.57;;;;;;;-0.65;100.00;98070.22;5030448;28;20041;-67
2022/01/21 08:18:21;;;;;;;11.77;4.72;;;;;;;-0.76;100.00;98073.88;5026570;28;20056;-66
2022/01/21 08:20:47;;;;;;;18.60;5.38;;;;;;;-0.70;100.00;98080.09;5031514;28;20116;-65
2022/01/21 08:23:13;;;;;;;11.18;5.88;;;;;;;-0.54;100.00;98086.41;5018674;28;20033;-66
2022/01/21 08:25:39;;;;;;;14.25;5.45;;;;;;;-1.08;100.00;98090.06;5023167;28;20045;-65
2022/01/21 08:28:05;;;;;;;14.48;7.50;;;;;;;-1.41;100.00;98086.56;5018429;28;20533;-65
2022/01/21 08:30:31;;;;;;;35.83;18.55;;;;;;;-1.44;100.00;98084.38;5023374;28;20076;-64
2022/01/21 08:32:57;;;;;;;19.67;8.80;;;;;;;-1.36;100.00;98082.03;5023686;28;20107;-66
2022/01/21 08:35:23;;;;;;;18.50;8.05;;;;;;;-1.02;100.00;98083.69;5029607;28;20051;-66
2022/01/21 08:37:52;;;;;;;18.83;8.88;;;;;;;-0.62;100.00;98085.81;5041500;28;20041;-66
2022/01/21 08:40:18;;;;;;;11.90;6.05;;;;;;;-0.31;100.00;98088.69;5046563;28;20098;-69
2022/01/21 08:42:43;;;;;;;18.77;5.60;;;;;;;-0.12;100.00;98102.50;5055577;28;20053;-69
2022/01/21 08:45:11;;;;;;;15.30;6.32;;;;;;;0.13;95.36;98092.91;5046652;28;20075;-67
2022/01/21 08:47:37;;;;;;;10.60;4.80;;;;;;;0.47;92.24;98097.84;5049459;28;20087;-65
2022/01/21 08:50:07;;;;;;;12.07;5.65;;;;;;;0.58;90.55;98099.50;5042428;28;20041;-67
2022/01/21 08:52:36;;;;;;;12.80;5.50;;;;;;;0.67;88.70;98095.19;5041301;28;20048;-65
2022/01/21 08:55:02;;;;;;;10.15;4.55;;;;;;;0.15;91.58;98096.97;5041938;28;20052;-66
2022/01/21 08:57:28;;;;;;;19.73;5.05;;;;;;;-0.04;92.38;98101.19;5018792;28;20045;-67
2022/01/21 08:59:53;;;;;;;9.57;4.53;;;;;;;0.04;93.75;98100.69;5025363;28;20083;-65
2022/01/21 09:02:19;;;;;;;14.63;4.82;;;;;;;-0.14;94.72;98101.97;5033820;28;20084;-67
2022/01/21 09:04:44;;;;;;;13.63;5.70;;;;;;;-0.24;93.82;98102.72;5034489;28;20037;-66
2022/01/21 09:07:10;;;;;;;22.58;6.97;;;;;;;0.14;93.82;98108.78;5037937;28;20069;-66
2022/01/21 09:09:35;;;;;;;11.85;5.65;;;;;;;0.47;94.13;98111.31;5043090;28;20102;-65
2022/01/21 09:12:01;;;;;;;15.27;5.20;;;;;;;-0.18;94.98;98119.72;5042208;28;20036;-65
2022/01/21 09:14:28;;;;;;;12.75;5.32;;;;;;;0.21;96.45;98110.44;5040983;28;20045;-63
2022/01/21 09:16:56;;;;;;;7.15;3.83;;;;;;;0.07;91.73;98110.94;5053025;28;20045;-66
2022/01/21 09:19:21;;;;;;;16.38;4.80;;;;;;;0.53;90.94;98107.56;5042066;28;20047;-65
2022/01/21 09:21:51;;;;;;;12.38;5.85;;;;;;;0.58;89.98;98104.88;5033250;28;20037;-66
2022/01/21 09:24:17;;;;;;;10.80;6.25;;;;;;;0.62;90.15;98095.19;5026721;28;20202;-64
2022/01/21 09:26:43;;;;;;;14.18;5.20;;;;;;;0.45;89.56;98100.00;5029093;28;20034;-64
2022/01/21 09:29:08;;;;;;;12.60;4.28;;;;;;;1.66;86.27;98104.84;5017332;28;20389;-63
2022/01/21 09:31:34;;;;;;;11.40;4.18;;;;;;;2.41;79.25;98102.13;5030864;28;20042;-64
2022/01/21 09:33:59;;;;;;;12.88;4.13;;;;;;;2.90;76.89;98100.47;5037760;28;20113;-66
2022/01/21 09:36:25;;;;;;;9.60;3.65;;;;;;;3.38;74.51;98097.06;5032323;28;20446;-65
2022/01/21 09:38:50;;;;;;;9.73;3.40;;;;;;;3.86;71.50;98096.31;5037682;28;20072;-66
2022/01/21 09:41:17;;;;;;;12.02;3.47;;;;;;;3.13;70.80;98106.22;5053188;28;20110;-67
2022/01/21 09:43:52;;;;;;;7.55;3.10;;;;;;;2.58;73.98;98111.75;5034506;28;20060;-65
2022/01/21 09:46:22;;;;;;;9.98;3.63;;;;;;;1.20;82.06;98121.13;5033793;28;20046;-65
2022/01/21 09:48:54;;;;;;;;;;;;;;;2.18;78.59;98125.22;5022393;28;20041;-65
2022/01/21 09:51:20;;;;;;;15.27;5.07;;;;;;;3.17;72.13;98116.22;5020986;28;19939;-66
2022/01/21 09:53:46;;;;;;;12.60;3.92;;;;;;;3.60;70.53;98113.66;5035890;28;20486;-66
2022/01/21 09:56:14;;;;;;;14.32;5.55;;;;;;;3.91;68.86;98126.09;5029027;28;20140;-66
2022/01/21 09:58:43;;;;;;;12.68;4.15;;;;;;;4.63;64.50;98119.75;5029272;28;20192;-66
2022/01/21 10:01:09;;;;;;;9.40;4.05;;;;;;;4.88;64.29;98127.53;5030582;28;20160;-66
2022/01/21 10:03:35;;;;;;;11.40;3.15;;;;;;;5.68;60.54;98125.69;5048321;28;20067;-65
2022/01/21 10:06:02;;;;;;;10.02;3.70;;;;;;;6.30;59.80;98132.69;5041484;28;20048;-65
2022/01/21 10:08:28;;;;;;;9.27;2.67;;;;;;;7.12;54.89;98119.22;5038067;28;20064;-66
2022/01/21 10:10:54;;;;;;;13.32;3.50;;;;;;;7.11;56.09;98125.75;5040255;28;20378;-66
2022/01/21 10:13:21;;;;;;;8.50;3.25;;;;;;;4.89;59.44;98131.84;5036826;28;20041;-66
2022/01/21 10:15:48;;;;;;;11.45;3.72;;;;;;;4.94;60.12;98139.13;5040719;28;20041;-66
2022/01/21 10:18:16;;;;;;;9.63;3.40;;;;;;;5.33;60.07;98144.22;5036549;28;20401;-64
2022/01/21 10:21:00;;;;;;;9.10;3.30;;;;;;;4.71;62.52;98146.25;5057145;28;20037;-66
2022/01/21 10:23:28;;;;;;;8.32;3.40;;;;;;;3.94;63.46;98142.59;5030912;28;20396;-66
2022/01/21 10:26:04;;;;;;;10.90;4.00;;;;;;;4.48;63.26;98145.19;5026294;28;20498;-66
2022/01/21 10:28:31;;;;;;;13.75;4.35;;;;;;;4.51;64.02;98142.69;5030119;28;20042;-66
2022/01/21 10:31:10;;;;;;;9.00;3.30;;;;;;;5.02;62.68;98149.31;5046052;28;20045;-65
2022/01/21 10:33:42;;;;;;;12.95;4.05;;;;;;;5.10;60.39;98151.38;5034859;28;20055;-65
2022/01/21 10:36:09;;;;;;;9.32;2.92;;;;;;;5.34;58.75;98156.69;5037398;28;20056;-65
2022/01/21 10:38:50;;;;;;;9.93;3.58;;;;;;;4.53;61.00;98145.13;5023013;28;20049;-65
2022/01/21 10:41:18;;;;;;;11.38;3.47;;;;;;;3.58;64.72;98147.53;5028981;28;20044;-65
2022/01/21 10:44:01;;;;;;;13.82;4.00;;;;;;;3.93;65.39;98142.88;5019326;28;20577;-66
2022/01/21 10:46:26;;;;;;;9.60;3.38;;;;;;;4.14;63.08;98143.44;5015592;28;20042;-66
2022/01/21 10:48:57;;;;;;;31.20;4.32;;;;;;;4.47;61.24;98135.44;5020414;28;20552;-66
2022/01/21 10:51:26;;;;;;;8.75;3.13;;;;;;;4.21;63.13;98135.75;5046736;28;20069;-65
2022/01/21 10:53:53;;;;;;;8.35;3.78;;;;;;;2.93;69.01;98137.75;5035595;28;20337;-66
2022/01/21 10:56:18;;;;;;;10.57;4.30;;;;;;;1.49;74.50;98138.34;5031838;28;20073;-64
2022/01/21 10:58:47;;;;;;;11.95;4.80;;;;;;;1.03;80.02;98143.78;5040468;28;20075;-64
2022/01/21 11:01:18;;;;;;;16.38;5.63;;;;;;;1.38;79.61;98142.16;5036223;28;20098;-65
2022/01/21 11:04:06;;;;;;;12.90;3.70;;;;;;;1.77;75.89;98144.25;5039108;28;20041;-66
2022/01/21 11:06:47;;;;;;;10.95;3.40;;;;;;;2.51;71.16;98144.53;5037758;28;20040;-66
2022/01/21 11:09:17;;;;;;;7.40;3.60;;;;;;;2.92;69.46;98140.75;5017789;28;20514;-65
2022/01/21 11:11:49;;;;;;;10.50;3.67;;;;;;;3.00;69.22;98142.88;5026129;28;20053;-67
2022/01/21 11:14:19;;;;;;;11.60;2.90;;;;;;;3.48;64.99;98145.75;5041755;28;20410;-66
2022/01/21 11:16:47;;;;;;;7.70;2.20;;;;;;;3.57;58.33;98144.03;5024143;28;20046;-64
2022/01/21 11:19:23;;;;;;;4.40;2.00;;;;;;;3.66;57.21;98144.22;5024087;28;20041;-66
2022/01/21 11:21:56;;;;;;;11.95;2.38;;;;;;;4.27;56.88;98141.91;5046680;28;20041;-65
2022/01/21 11:24:24;;;;;;;6.90;2.28;;;;;;;4.36;54.76;98146.41;5026639;28;20486;-66
2022/01/21 11:27:10;;;;;;;15.27;2.53;;;;;;;4.55;56.37;98145.63;5039866;28;20041;-67
2022/01/21 11:29:35;;;;;;;8.38;1.90;;;;;;;5.15;53.08;98140.44;5043714;28;20036;-66
2022/01/21 11:32:03;;;;;;;10.85;2.30;;;;;;;5.49;54.61;98141.22;5044719;28;20482;-67
2022/01/21 11:34:30;;;;;;;5.75;2.20;;;;;;;4.60;58.13;98132.81;5042132;28;20128;-66
2022/01/21 11:36:56;;;;;;;8.82;2.28;;;;;;;3.77;60.74;98132.19;5045090;28;20040;-67
2022/01/21 11:39:24;;;;;;;13.73;3.83;;;;;;;3.96;60.96;98137.69;5024185;28;20113;-66
2022/01/21 11:41:51;;;;;;;11.88;4.15;;;;;;;4.23;60.21;98128.13;5045107;28;20041;-65
2022/01/21 11:44:19;;;;;;;5.53;2.33;;;;;;;4.32;56.55;98131.00;5039282;28;20052;-66
2022/01/21 11:47:01;;;;;;;7.45;2.50;;;;;;;4.14;57.28;98121.72;5044419;28;20079;-66
2022/01/21 11:49:27;;;;;;;9.35;2.70;;;;;;;4.16;56.93;98123.06;5053346;28;20234;-66
2022/01/21 11:52:15;;;;;;;10.13;3.13;;;;;;;4.25;54.91;98131.38;5044686;28;20074;-66
2022/01/21 11:54:41;;;;;;;9.35;2.25;;;;;;;4.37;53.18;98128.22;5025046;28;20053;-66
2022/01/21 11:57:08;;;;;;;6.68;2.28;;;;;;;5.26;53.84;98122.06;5018505;28;20052;-66
2022/01/21 11:59:37;;;;;;;27.25;3.13;;;;;;;6.09;51.43;98113.28;5023329;28;20041;-67
2022/01/21 12:02:28;;;;;;;14.73;2.95;;;;;;;6.00;55.82;98117.81;5022319;28;20411;-65
2022/01/21 12:04:55;;;;;;;9.35;3.55;;;;;;;6.22;56.59;98107.00;5042461;28;20520;-67
2022/01/21 12:07:36;;;;;;;24.45;4.18;;;;;;;5.79;54.28;98115.44;5019874;28;20037;-66
2022/01/21 12:10:04;;;;;;;8.88;2.92;;;;;;;6.07;54.83;98112.78;5023296;28;20038;-64
2022/01/21 12:13:01;;;;;;;14.25;3.33;;;;;;;5.98;53.73;98115.38;5035667;28;20072;-67
2022/01/21 12:15:32;;;;;;;10.25;2.97;;;;;;;6.10;53.52;98112.13;5019360;28;20077;-65
2022/01/21 12:20:43;;;;;;;10.88;2.83;;;;;;;7.07;52.34;98109.22;5037969;28;20037;-67